Time;durP1;ratioP1;P1;durP2;ratioP2;P2;SDS_P1;SDS_P2;PMS_P1;PMS_P2;Temp;Humidity;BMP_temperature;BMP_pressure;BME280_temperature;BME280_humidity;BME280_pressure;Samples;Min_cycle;Max_cycle;Signal;HPM_P1;HPM_P2
2022/03/29 03:54:54;;;;;;;13.80;7.27;;;8.70;76.10;;;;;;5404621;23;20310;-80
2022/03/29 03:57:21;;;;;;;15.50;7.90;;;8.90;76.50;;;;;;4975077;28;20407;-81
2022/03/29 03:59:50;;;;;;;14.18;8.30;;;8.80;77.70;;;;;;4975075;28;20126;-80
2022/03/29 04:02:17;;;;;;;12.25;7.50;;;8.60;78.60;;;;;;4975398;28;20054;-78
2022/03/29 04:04:44;;;;;;;13.57;7.95;;;8.60;80.50;;;;;;4975105;28;20440;-81
2022/03/29 04:07:11;;;;;;;12.80;7.43;;;8.60;79.80;;;;;;4986118;28;20110;-84
2022/03/29 04:09:39;;;;;;;14.20;8.45;;;8.70;79.30;;;;;;4990123;28;20078;-83
2022/03/29 04:12:09;;;;;;;15.13;9.25;;;8.80;79.40;;;;;;4978992;28;20047;-85
2022/03/29 04:14:37;;;;;;;15.50;9.02;;;8.70;78.10;;;;;;4979265;28;20130;-93
2022/03/29 04:17:06;;;;;;;16.42;9.50;;;8.80;78.40;;;;;;4959610;28;20054;-86
2022/03/29 04:19:33;;;;;;;18.35;10.50;;;8.70;78.20;;;;;;4973964;28;20147;-85
2022/03/29 04:22:00;;;;;;;15.50;9.82;;;8.70;79.40;;;;;;4976124;28;20046;-85
2022/03/29 04:24:28;;;;;;;14.43;8.75;;;8.70;78.40;;;;;;4978191;28;20057;-85
2022/03/29 04:26:55;;;;;;;15.73;8.80;;;8.70;76.90;;;;;;4978992;28;20055;-85
2022/03/29 04:29:24;;;;;;;14.10;8.93;;;8.90;75.80;;;;;;4978419;28;20142;-83
2022/03/29 04:31:52;;;;;;;13.95;8.23;;;8.70;76.50;;;;;;4979235;28;20058;-83
2022/03/29 04:34:19;;;;;;;15.82;8.25;;;8.70;75.40;;;;;;4978132;28;20047;-84
2022/03/29 04:36:46;;;;;;;16.13;7.97;;;8.70;76.60;;;;;;4977639;28;20134;-83
2022/03/29 04:39:14;;;;;;;15.05;7.93;;;8.70;76.10;;;;;;4978452;28;20054;-81
2022/03/29 04:41:41;;;;;;;13.20;8.30;;;8.60;77.70;;;;;;4976996;28;20047;-82
2022/03/29 04:44:08;;;;;;;13.20;7.60;;;8.60;78.50;;;;;;4977236;28;20046;-82
2022/03/29 04:46:36;;;;;;;12.52;7.13;;;8.70;76.40;;;;;;4977188;28;20086;-82
2022/03/29 04:49:03;;;;;;;13.15;7.75;;;8.80;76.40;;;;;;4976831;28;20489;-82
2022/03/29 04:51:31;;;;;;;13.60;7.85;;;8.80;76.10;;;;;;4977225;28;20475;-82
2022/03/29 04:53:58;;;;;;;13.80;8.25;;;8.80;75.90;;;;;;4977133;28;20054;-82
2022/03/29 04:56:25;;;;;;;13.15;7.68;;;8.80;76.90;;;;;;4976886;28;20082;-83
2022/03/29 04:58:52;;;;;;;12.18;7.20;;;8.70;76.70;;;;;;4976961;28;20046;-82
2022/03/29 05:01:19;;;;;;;13.52;7.45;;;8.90;75.80;;;;;;4976170;28;20047;-83
2022/03/29 05:03:47;;;;;;;13.50;7.38;;;8.90;76.90;;;;;;4976136;28;20138;-83
2022/03/29 05:06:14;;;;;;;10.93;7.03;;;8.90;75.90;;;;;;4976837;28;20479;-82
2022/03/29 05:08:41;;;;;;;14.77;8.40;;;8.90;77.00;;;;;;4977095;28;20042;-85
2022/03/29 05:11:08;;;;;;;14.20;8.63;;;8.70;78.30;;;;;;4979266;28;20142;-82
2022/03/29 05:13:36;;;;;;;16.73;9.25;;;8.60;79.60;;;;;;4980465;28;20051;-83
2022/03/29 05:16:03;;;;;;;15.45;9.00;;;8.40;79.60;;;;;;4959328;28;20130;-82
2022/03/29 05:18:30;;;;;;;14.82;9.25;;;8.30;81.00;;;;;;4978798;28;20054;-81
2022/03/29 05:20:58;;;;;;;14.50;8.55;;;8.10;81.10;;;;;;4976692;28;20137;-82
2022/03/29 05:23:25;;;;;;;18.35;11.05;;;8.10;83.50;;;;;;4976321;28;20448;-82
2022/03/29 05:25:53;;;;;;;17.80;11.13;;;7.80;86.50;;;;;;4976078;28;20543;-82
2022/03/29 05:28:20;;;;;;;20.77;12.30;;;7.70;86.20;;;;;;4975945;28;20133;-82
2022/03/29 05:30:47;;;;;;;19.77;11.45;;;7.70;88.60;;;;;;4975472;28;20050;-83
2022/03/29 05:33:18;;;;;;;16.58;10.52;;;7.70;88.00;;;;;;4975855;28;20463;-82
2022/03/29 05:35:45;;;;;;;17.38;10.55;;;7.70;88.40;;;;;;4975769;28;20456;-81
2022/03/29 05:38:14;;;;;;;14.73;9.80;;;7.80;88.90;;;;;;4976147;28;20133;-83
2022/03/29 05:40:41;;;;;;;16.55;10.00;;;8.00;87.80;;;;;;4975895;28;20138;-81
2022/03/29 05:43:12;;;;;;;16.67;9.75;;;7.70;88.60;;;;;;4975948;28;20403;-82
2022/03/29 05:45:40;;;;;;;16.13;9.02;;;7.80;88.50;;;;;;4975609;28;20050;-82
2022/03/29 05:50:53;;;;;;;15.55;8.93;;;8.00;86.60;;;;;;4975688;28;20554;-83
2022/03/29 05:53:22;;;;;;;14.00;9.13;;;8.10;87.60;;;;;;4975968;28;20138;-82
2022/03/29 05:55:49;;;;;;;16.25;10.50;;;8.10;86.80;;;;;;4975184;28;20141;-82
2022/03/29 05:58:17;;;;;;;15.77;9.38;;;7.90;88.80;;;;;;4975476;28;20130;-81
2022/03/29 06:00:44;;;;;;;18.45;10.93;;;8.00;88.90;;;;;;4974795;28;20054;-83
2022/03/29 06:03:11;;;;;;;17.13;10.75;;;7.80;89.40;;;;;;4975017;28;20065;-83
2022/03/29 06:05:42;;;;;;;20.40;13.45;;;7.80;90.10;;;;;;4975142;28;20051;-81
2022/03/29 06:08:11;;;;;;;19.48;12.15;;;7.90;90.30;;;;;;4975202;28;20105;-82
2022/03/29 06:10:39;;;;;;;17.02;10.60;;;8.00;89.70;;;;;;4975202;28;20051;-82
2022/03/29 06:13:08;;;;;;;15.32;10.55;;;8.20;88.50;;;;;;4974219;28;20412;-84
2022/03/29 06:15:36;;;;;;;18.23;10.98;;;8.30;88.10;;;;;;4974662;28;20046;-81
2022/03/29 06:18:04;;;;;;;17.42;11.65;;;8.40;88.10;;;;;;4974895;28;20053;-82
2022/03/29 06:20:31;;;;;;;18.45;12.23;;;8.40;87.90;;;;;;4975007;28;20051;-81
2022/03/29 06:22:59;;;;;;;17.35;11.25;;;8.40;88.10;;;;;;4974911;28;20055;-82
2022/03/29 06:25:26;;;;;;;19.52;10.55;;;8.40;87.10;;;;;;4974914;28;20403;-81
2022/03/29 06:27:55;;;;;;;15.63;9.85;;;8.60;86.10;;;;;;4973829;28;20389;-82
2022/03/29 06:30:23;;;;;;;15.55;9.15;;;8.70;85.30;;;;;;4974168;28;20051;-84
2022/03/29 06:32:52;;;;;;;16.38;9.07;;;8.80;84.30;;;;;;4974426;28;20138;-84
2022/03/29 06:35:21;;;;;;;13.20;8.23;;;8.70;83.90;;;;;;4974564;28;20141;-83
2022/03/29 06:37:49;;;;;;;15.30;8.85;;;8.80;83.50;;;;;;4974720;28;20571;-82
2022/03/29 06:40:16;;;;;;;19.02;9.05;;;8.80;81.50;;;;;;4974664;28;20496;-84
2022/03/29 06:42:43;;;;;;;15.18;7.97;;;8.90;80.10;;;;;;4974446;28;20540;-83
2022/03/29 06:45:12;;;;;;;16.60;8.30;;;9.00;78.90;;;;;;4975017;28;20085;-82
2022/03/29 06:47:39;;;;;;;16.73;8.43;;;9.10;78.20;;;;;;4974757;28;20133;-85
2022/03/29 06:50:09;;;;;;;12.18;7.82;;;9.10;77.70;;;;;;4975010;28;20054;-82
2022/03/29 06:52:37;;;;;;;15.73;8.60;;;9.20;76.90;;;;;;4975123;28;20054;-83
2022/03/29 06:55:07;;;;;;;13.23;7.80;;;9.30;77.10;;;;;;4974583;28;20089;-83
2022/03/29 06:57:34;;;;;;;14.43;8.20;;;9.30;76.50;;;;;;4973784;28;20050;-80
2022/03/29 07:00:02;;;;;;;15.88;7.93;;;9.40;76.10;;;;;;4942366;28;20130;-81
2022/03/29 07:02:30;;;;;;;15.45;8.07;;;9.40;75.60;;;;;;4984632;28;20058;-83
2022/03/29 07:04:57;;;;;;;12.65;7.72;;;9.50;75.30;;;;;;4974655;28;20055;-83
2022/03/29 07:07:24;;;;;;;13.90;8.15;;;9.60;74.70;;;;;;4974971;28;20047;-82
2022/03/29 07:12:49;;;;;;;12.43;7.25;;;9.80;75.00;;;;;;4895902;29;20052;-83
2022/03/29 07:15:16;;;;;;;18.00;7.82;;;9.90;76.00;;;;;;4955937;28;20400;-81
2022/03/29 07:17:45;;;;;;;14.60;8.00;;;9.60;78.60;;;;;;4974893;28;20146;-83
2022/03/29 07:20:15;;;;;;;16.85;8.48;;;9.60;79.10;;;;;;4974630;28;20584;-83
2022/03/29 07:22:43;;;;;;;12.63;7.47;;;9.60;80.50;;;;;;4974513;28;20042;-82
2022/03/29 07:25:11;;;;;;;13.77;8.13;;;9.60;79.50;;;;;;4973780;28;20051;-82
2022/03/29 07:27:40;;;;;;;13.27;7.85;;;9.80;80.00;;;;;;4974143;28;20055;-82
2022/03/29 07:30:10;;;;;;;12.65;7.65;;;9.80;79.40;;;;;;4973904;28;20047;-82
2022/03/29 07:32:47;;;;;;;12.75;7.90;;;9.90;77.70;;;;;;4974812;28;20389;-82
2022/03/29 07:35:15;;;;;;;15.43;7.57;;;10.00;77.30;;;;;;4974914;28;20050;-83
2022/03/29 07:37:43;;;;;;;15.32;8.45;;;10.10;78.10;;;;;;4974614;28;20078;-83
2022/03/29 07:40:13;;;;;;;16.25;8.77;;;10.00;80.50;;;;;;4974725;28;20486;-82
2022/03/29 07:42:40;;;;;;;15.70;9.70;;;9.80;82.30;;;;;;4973707;28;20133;-82
2022/03/29 07:45:10;;;;;;;15.30;8.75;;;9.70;83.50;;;;;;4974325;28;20086;-82
2022/03/29 07:47:37;;;;;;;17.27;9.85;;;9.80;84.50;;;;;;4974968;28;20082;-82
2022/03/29 07:50:07;;;;;;;15.70;9.30;;;9.80;85.00;;;;;;4974561;28;20121;-81
2022/03/29 07:52:35;;;;;;;16.20;10.05;;;9.90;83.80;;;;;;4985200;28;20078;-83
2022/03/29 07:55:04;;;;;;;17.50;10.10;;;9.90;82.70;;;;;;4977973;28;20047;-81
2022/03/29 07:57:31;;;;;;;15.73;9.52;;;10.00;81.50;;;;;;4974059;28;20134;-83
2022/03/29 07:59:58;;;;;;;14.30;8.75;;;10.20;80.10;;;;;;4974376;28;20043;-85
2022/03/29 08:02:25;;;;;;;16.63;9.35;;;10.40;78.20;;;;;;4974211;28;20142;-82
2022/03/29 08:04:52;;;;;;;14.95;8.98;;;10.50;72.10;;;;;;4974311;28;20463;-82
2022/03/29 08:07:20;;;;;;;16.55;8.63;;;10.50;70.60;;;;;;4974072;28;20065;-83
2022/03/29 08:09:47;;;;;;;16.50;9.30;;;10.50;70.60;;;;;;4973982;28;20089;-81
2022/03/29 08:12:14;;;;;;;14.43;8.88;;;10.50;70.20;;;;;;4973258;28;20129;-81
2022/03/29 08:14:42;;;;;;;14.52;8.93;;;10.60;70.00;;;;;;4974082;28;20077;-84
2022/03/29 08:17:09;;;;;;;16.00;8.90;;;10.80;69.30;;;;;;4976240;28;20082;-81
2022/03/29 08:19:37;;;;;;;14.88;8.85;;;10.90;69.30;;;;;;4974421;28;20488;-84
2022/03/29 08:22:05;;;;;;;13.88;8.55;;;11.10;67.70;;;;;;4974641;28;20190;-81
2022/03/29 08:24:34;;;;;;;15.25;9.10;;;11.20;67.40;;;;;;4974106;28;20082;-81
2022/03/29 08:27:01;;;;;;;13.55;8.48;;;11.20;67.20;;;;;;4974172;28;20587;-81
2022/03/29 08:29:29;;;;;;;13.23;9.05;;;11.40;67.20;;;;;;4974328;28;20057;-81
2022/03/29 08:31:56;;;;;;;15.63;8.88;;;11.40;66.70;;;;;;4973448;28;20146;-82
2022/03/29 08:34:23;;;;;;;14.32;8.75;;;11.40;66.20;;;;;;4973940;28;20137;-82
2022/03/29 08:36:52;;;;;;;14.75;7.97;;;11.60;66.20;;;;;;4977437;28;20138;-81
2022/03/29 08:39:19;;;;;;;14.88;7.97;;;11.80;66.00;;;;;;4984562;28;20051;-80
2022/03/29 08:41:54;;;;;;;14.30;8.18;;;11.90;66.00;;;;;;4959831;28;20101;-82
2022/03/29 08:44:23;;;;;;;13.45;8.70;;;12.00;65.40;;;;;;4976931;28;20362;-82
2022/03/29 08:46:50;;;;;;;13.57;8.38;;;12.10;65.20;;;;;;4976825;28;20046;-82
2022/03/29 08:49:20;;;;;;;14.13;8.20;;;12.20;65.20;;;;;;4977815;28;20141;-81
2022/03/29 08:51:47;;;;;;;13.40;9.00;;;12.30;64.90;;;;;;4977007;28;20082;-81
2022/03/29 08:54:15;;;;;;;15.18;9.10;;;12.20;64.30;;;;;;4976827;28;20087;-81
2022/03/29 08:56:42;;;;;;;15.30;8.52;;;12.20;63.20;;;;;;4976918;28;20058;-81
2022/03/29 08:59:11;;;;;;;15.25;9.05;;;12.30;64.00;;;;;;4976885;28;20085;-81
2022/03/29 09:01:38;;;;;;;16.00;8.73;;;12.40;63.70;;;;;;4976877;28;20552;-82
2022/03/29 09:04:11;;;;;;;16.15;9.25;;;12.50;63.40;;;;;;4976677;28;20047;-82
2022/03/29 09:07:00;;;;;;;15.93;8.70;;;12.50;63.10;;;;;;4977232;28;20145;-82
2022/03/29 09:09:29;;;;;;;14.82;8.85;;;12.60;62.60;;;;;;4976569;28;20062;-82
2022/03/29 09:11:58;;;;;;;14.25;8.57;;;12.70;61.80;;;;;;4959837;28;20412;-80
2022/03/29 09:14:29;;;;;;;14.23;8.88;;;12.70;61.70;;;;;;4976174;28;20046;-83
2022/03/29 09:16:57;;;;;;;16.17;8.90;;;12.90;61.40;;;;;;4976062;28;20130;-81
2022/03/29 09:19:25;;;;;;;13.88;8.32;;;12.90;61.70;;;;;;4960138;28;20046;-83
2022/03/29 09:21:55;;;;;;;15.82;8.73;;;13.00;60.50;;;;;;4966657;28;20077;-83
2022/03/29 09:24:23;;;;;;;15.23;8.52;;;12.90;59.90;;;;;;4977128;28;20168;-82
2022/03/29 09:26:54;;;;;;;13.35;8.05;;;13.10;60.00;;;;;;4974484;28;20050;-82
2022/03/29 09:29:24;;;;;;;13.60;9.07;;;13.30;60.40;;;;;;4975844;28;20109;-82
2022/03/29 09:32:06;;;;;;;14.88;7.85;;;13.50;60.10;;;;;;4976085;28;20078;-85
2022/03/29 09:34:34;;;;;;;14.50;8.65;;;13.70;59.40;;;;;;4975507;28;20054;-84
2022/03/29 09:37:03;;;;;;;14.23;8.90;;;13.80;59.20;;;;;;4975648;28;20130;-85
2022/03/29 09:39:37;;;;;;;13.90;8.77;;;13.70;58.20;;;;;;4975572;28;20089;-82
2022/03/29 09:42:09;;;;;;;15.27;8.02;;;13.70;58.30;;;;;;4975550;28;20102;-79
2022/03/29 09:44:41;;;;;;;14.50;8.80;;;14.10;62.00;;;;;;4975765;28;20122;-80
2022/03/29 09:47:12;;;;;;;11.88;8.13;;;13.90;57.90;;;;;;4975280;28;20054;-78
2022/03/29 09:49:58;;;;;;;13.32;8.20;;;14.10;58.20;;;;;;4976071;28;20050;-78
2022/03/29 09:52:27;;;;;;;13.40;8.35;;;14.20;57.60;;;;;;4975615;28;20055;-79
2022/03/29 09:55:14;;;;;;;12.80;7.53;;;14.20;57.30;;;;;;4975209;28;20137;-78
2022/03/29 09:57:45;;;;;;;35.50;21.30;;;14.40;57.40;;;;;;4948467;29;20061;-78
2022/03/29 10:00:16;;;;;;;16.17;9.40;;;14.50;57.10;;;;;;4953575;29;20109;-81
2022/03/29 10:02:46;;;;;;;12.38;8.05;;;14.60;56.80;;;;;;4953640;29;20047;-80
2022/03/29 10:05:15;;;;;;;14.38;8.60;;;14.60;56.20;;;;;;4953769;29;20122;-79
2022/03/29 10:07:46;;;;;;;12.95;8.48;;;14.60;56.10;;;;;;4957975;28;20117;-80
2022/03/29 10:10:13;;;;;;;11.50;7.80;;;14.70;55.50;;;;;;4962343;28;20496;-80
2022/03/29 10:12:41;;;;;;;13.18;8.45;;;14.60;54.80;;;;;;4972069;28;20122;-79
2022/03/29 10:15:09;;;;;;;13.52;8.27;;;14.80;54.90;;;;;;4970273;28;20146;-79
2022/03/29 10:17:40;;;;;;;11.23;8.00;;;14.90;54.30;;;;;;4972172;28;20050;-79
2022/03/29 10:20:10;;;;;;;12.13;8.07;;;15.00;55.10;;;;;;4972799;28;20082;-82
2022/03/29 10:22:40;;;;;;;12.93;8.93;;;15.30;54.30;;;;;;4972254;28;20061;-82
2022/03/29 10:25:08;;;;;;;16.48;8.70;;;15.20;53.90;;;;;;4973358;28;20073;-80
2022/03/29 10:27:36;;;;;;;12.82;8.32;;;15.20;52.90;;;;;;4972942;28;20055;-83
2022/03/29 10:30:04;;;;;;;13.15;7.97;;;15.40;53.00;;;;;;4972437;28;20169;-81
2022/03/29 10:32:33;;;;;;;15.63;8.32;;;15.30;53.50;;;;;;4972708;28;20543;-81
2022/03/29 10:35:09;;;;;;;13.27;7.45;;;15.50;53.40;;;;;;4972703;28;20400;-79
2022/03/29 10:37:53;;;;;;;13.38;8.30;;;15.70;53.70;;;;;;4972804;28;20055;-81
2022/03/29 10:40:42;;;;;;;14.93;7.93;;;15.70;53.10;;;;;;4972906;28;20051;-82
2022/03/29 10:43:29;;;;;;;12.90;7.63;;;15.70;53.10;;;;;;4966184;28;20158;-80
2022/03/29 10:45:58;;;;;;;13.43;8.35;;;15.90;53.40;;;;;;4972625;28;20082;-81
2022/03/29 10:48:25;;;;;;;11.85;7.60;;;16.00;53.80;;;;;;4963936;28;20051;-80
2022/03/29 10:51:01;;;;;;;10.68;7.38;;;16.10;54.30;;;;;;4972216;28;20137;-80
2022/03/29 10:53:34;;;;;;;11.20;7.43;;;16.30;53.30;;;;;;4972997;28;20137;-80
2022/03/29 10:56:23;;;;;;;13.45;8.07;;;16.30;53.30;;;;;;4957296;28;20149;-81
2022/03/29 10:59:13;;;;;;;12.48;8.05;;;16.20;53.40;;;;;;4953477;28;20067;-81
2022/03/29 11:01:42;;;;;;;11.43;7.35;;;16.20;53.20;;;;;;4961548;28;20062;-80
2022/03/29 11:04:17;;;;;;;10.57;7.13;;;16.30;54.00;;;;;;4971801;28;20397;-80
2022/03/29 11:07:12;;;;;;;10.65;7.57;;;16.40;52.70;;;;;;4970593;28;20054;-80
2022/03/29 11:09:41;;;;;;;12.95;8.27;;;16.50;52.40;;;;;;4966558;28;20230;-79
2022/03/29 11:12:43;;;;;;;11.43;7.50;;;16.60;52.20;;;;;;4971535;28;20496;-79
2022/03/29 11:15:47;;;;;;;11.30;7.30;;;16.80;51.90;;;;;;4969577;28;20058;-80
2022/03/29 11:18:41;;;;;;;13.10;8.27;;;17.00;52.10;;;;;;4971772;28;20062;-81
2022/03/29 11:21:10;;;;;;;11.18;7.65;;;16.70;49.20;;;;;;4970581;28;20051;-79
2022/03/29 11:23:41;;;;;;;11.75;8.02;;;16.90;49.50;;;;;;4961340;28;20054;-78
2022/03/29 11:26:12;;;;;;;11.57;7.18;;;17.10;45.70;;;;;;4971524;28;20054;-78
2022/03/29 11:28:49;;;;;;;11.30;6.70;;;17.00;44.30;;;;;;4971377;28;20047;-79
2022/03/29 11:31:16;;;;;;;11.82;7.60;;;17.20;44.40;;;;;;4971564;28;20534;-79
2022/03/29 11:33:45;;;;;;;13.32;7.05;;;17.20;43.30;;;;;;4972003;28;20138;-79
2022/03/29 11:36:12;;;;;;;11.38;7.30;;;17.20;43.00;;;;;;4971445;28;20073;-80
2022/03/29 11:38:41;;;;;;;11.75;7.50;;;17.30;42.90;;;;;;4971940;28;20050;-79
2022/03/29 11:41:24;;;;;;;12.55;7.95;;;17.30;43.70;;;;;;4953417;28;20055;-78
2022/03/29 11:43:58;;;;;;;11.40;7.40;;;17.20;43.40;;;;;;4952738;29;20055;-80
2022/03/29 11:46:26;;;;;;;15.63;8.30;;;17.20;42.30;;;;;;4953439;28;20360;-80
2022/03/29 11:48:53;;;;;;;12.02;7.35;;;17.40;42.20;;;;;;4971231;28;20146;-78
2022/03/29 11:51:22;;;;;;;13.18;7.80;;;17.40;43.20;;;;;;4990384;28;20050;-79
2022/03/29 11:53:59;;;;;;;11.82;7.78;;;17.50;41.20;;;;;;4990310;28;20058;-78
2022/03/29 11:56:27;;;;;;;10.82;7.47;;;17.60;41.90;;;;;;4990750;28;20074;-75
2022/03/29 11:58:56;;;;;;;11.63;7.82;;;17.60;41.80;;;;;;4990907;28;20050;-75
2022/03/29 12:01:27;;;;;;;12.98;7.82;;;17.50;42.40;;;;;;4990947;28;20134;-76
2022/03/29 12:03:56;;;;;;;11.30;7.20;;;17.70;42.30;;;;;;4991138;28;20050;-77
2022/03/29 12:06:26;;;;;;;13.20;7.75;;;17.80;43.20;;;;;;4971852;28;20137;-75
2022/03/29 12:08:56;;;;;;;13.13;7.20;;;17.90;41.10;;;;;;4970936;28;20061;-80
2022/03/29 12:11:28;;;;;;;12.18;7.20;;;17.80;41.80;;;;;;4975668;28;20051;-76
2022/03/29 12:14:08;;;;;;;12.70;7.03;;;18.00;41.80;;;;;;4974468;28;20061;-76
2022/03/29 12:16:37;;;;;;;12.15;6.72;;;18.00;40.60;;;;;;4975497;28;20479;-77
2022/03/29 12:19:11;;;;;;;13.07;7.20;;;18.10;40.80;;;;;;4974723;28;20475;-76
2022/03/29 12:21:40;;;;;;;16.73;7.32;;;18.30;40.50;;;;;;4975852;28;20051;-76
2022/03/29 12:24:10;;;;;;;12.05;7.50;;;18.10;41.30;;;;;;4975014;28;20051;-79
2022/03/29 12:26:44;;;;;;;14.52;7.50;;;17.70;41.00;;;;;;4974808;28;20142;-79
2022/03/29 12:29:15;;;;;;;13.63;7.40;;;17.50;41.80;;;;;;4975439;28;20069;-78
2022/03/29 12:31:42;;;;;;;11.10;7.15;;;17.50;41.10;;;;;;4974686;28;20318;-79
2022/03/29 12:34:12;;;;;;;10.25;5.82;;;17.50;39.70;;;;;;4974674;28;20051;-78
2022/03/29 12:36:41;;;;;;;14.20;7.00;;;17.90;39.70;;;;;;4974586;28;20411;-81
2022/03/29 12:39:10;;;;;;;13.73;7.25;;;17.90;39.00;;;;;;4974483;28;20050;-78
2022/03/29 12:41:44;;;;;;;13.05;6.97;;;17.80;38.80;;;;;;4974581;28;20057;-80
2022/03/29 12:44:14;;;;;;;13.68;6.82;;;17.80;38.70;;;;;;4974582;28;20054;-81
2022/03/29 12:46:43;;;;;;;12.85;7.40;;;17.90;39.10;;;;;;4974945;28;20046;-77
2022/03/29 12:49:11;;;;;;;12.02;7.25;;;17.70;38.10;;;;;;4974180;28;20564;-79
2022/03/29 12:51:40;;;;;;;12.55;6.68;;;17.70;39.10;;;;;;4973893;28;20143;-80
2022/03/29 12:54:09;;;;;;;12.57;6.28;;;17.70;39.00;;;;;;4974125;28;20493;-77
2022/03/29 12:56:44;;;;;;;12.05;7.13;;;17.90;39.20;;;;;;4974416;28;20408;-79
2022/03/29 12:59:28;;;;;;;;;;;17.90;38.70;;;;;;4975340;28;20058;-78
2022/03/29 13:02:02;;;;;;;13.55;6.88;;;17.70;38.40;;;;;;4974794;28;19932;-76
2022/03/29 13:04:40;;;;;;;14.93;6.85;;;17.80;39.20;;;;;;4974275;28;20051;-79
2022/03/29 13:07:07;;;;;;;14.90;7.15;;;17.90;39.00;;;;;;4973692;28;20091;-77
2022/03/29 13:09:35;;;;;;;11.25;6.72;;;17.70;38.80;;;;;;4974022;28;20512;-77
2022/03/29 13:12:16;;;;;;;12.85;6.78;;;17.60;39.00;;;;;;4973758;28;20051;-77
2022/03/29 13:14:45;;;;;;;14.80;7.38;;;17.80;39.40;;;;;;4972311;28;20432;-76
2022/03/29 13:17:13;;;;;;;13.50;6.88;;;17.90;39.70;;;;;;4974116;28;20047;-77
2022/03/29 13:19:54;;;;;;;12.90;6.90;;;18.00;39.20;;;;;;4974219;28;20058;-77
2022/03/29 13:22:21;;;;;;;14.27;6.43;;;18.10;38.90;;;;;;4973760;28;20047;-78
2022/03/29 13:24:49;;;;;;;14.27;6.43;;;18.20;38.50;;;;;;4974232;28;20055;-78
2022/03/29 13:27:18;;;;;;;14.27;6.50;;;18.30;38.30;;;;;;4973385;28;20701;-77
2022/03/29 13:29:45;;;;;;;11.18;6.10;;;18.20;39.20;;;;;;4973612;28;20511;-78
2022/03/29 13:32:14;;;;;;;16.83;6.53;;;18.40;39.40;;;;;;4973323;28;20510;-78
2022/03/29 13:34:42;;;;;;;19.77;6.72;;;18.50;39.00;;;;;;4974043;28;20082;-77
2022/03/29 13:37:10;;;;;;;11.55;6.43;;;18.50;37.90;;;;;;4973841;28;20237;-80
2022/03/29 13:39:40;;;;;;;13.88;7.00;;;18.40;37.80;;;;;;4973822;28;20055;-79
2022/03/29 13:42:08;;;;;;;14.57;6.55;;;18.30;38.30;;;;;;4973304;28;20056;-79
2022/03/29 13:44:37;;;;;;;12.07;6.00;;;18.50;38.40;;;;;;4973344;28;20059;-80
2022/03/29 13:47:05;;;;;;;11.43;6.40;;;18.60;38.90;;;;;;4973384;28;20057;-77
2022/03/29 13:49:32;;;;;;;17.30;6.90;;;18.70;38.50;;;;;;4973328;28;20097;-77
2022/03/29 13:51:59;;;;;;;13.25;6.35;;;18.80;38.60;;;;;;4972028;28;20051;-77
2022/03/29 13:54:27;;;;;;;14.52;6.25;;;18.70;38.50;;;;;;4973047;28;20475;-77
2022/03/29 13:56:55;;;;;;;11.63;6.35;;;19.10;39.10;;;;;;4972456;28;20043;-75
2022/03/29 13:59:25;;;;;;;12.15;6.20;;;19.20;38.70;;;;;;4972648;28;20061;-76
2022/03/29 14:01:54;;;;;;;18.40;7.28;;;19.20;37.80;;;;;;4973028;28;20062;-75
2022/03/29 14:04:21;;;;;;;11.40;6.65;;;19.20;38.10;;;;;;4972565;28;20061;-77
2022/03/29 14:06:48;;;;;;;16.45;6.72;;;19.00;37.80;;;;;;4972996;28;20050;-76
2022/03/29 14:09:15;;;;;;;15.80;6.70;;;19.10;38.00;;;;;;4972662;28;20078;-79
2022/03/29 14:11:42;;;;;;;16.95;7.20;;;19.00;37.60;;;;;;4972534;28;20050;-78
2022/03/29 14:14:09;;;;;;;14.82;6.32;;;19.10;38.00;;;;;;4971313;28;20416;-79
2022/03/29 14:16:38;;;;;;;17.80;6.22;;;18.80;38.20;;;;;;4973909;28;20559;-79
2022/03/29 14:19:08;;;;;;;17.55;6.68;;;18.80;38.20;;;;;;4972650;28;20051;-79
2022/03/29 14:21:35;;;;;;;16.85;6.72;;;18.80;38.70;;;;;;4973223;28;20145;-78
2022/03/29 14:24:02;;;;;;;16.02;6.75;;;18.90;38.90;;;;;;4973033;28;20130;-79
2022/03/29 14:26:29;;;;;;;16.42;6.60;;;18.90;38.20;;;;;;4956295;28;20644;-78
2022/03/29 14:28:59;;;;;;;16.92;6.80;;;18.80;38.60;;;;;;4973975;28;20080;-77
2022/03/29 14:31:27;;;;;;;17.65;6.90;;;18.40;38.40;;;;;;4972938;28;20460;-78
2022/03/29 14:33:55;;;;;;;19.17;7.00;;;18.30;38.30;;;;;;4972530;28;20061;-79
2022/03/29 14:36:25;;;;;;;18.52;6.50;;;18.20;38.60;;;;;;4955762;28;20089;-78
2022/03/29 14:38:56;;;;;;;22.25;6.95;;;18.20;38.70;;;;;;4972251;28;20066;-80
2022/03/29 14:41:24;;;;;;;20.63;6.28;;;18.20;38.50;;;;;;4965032;28;20186;-79
2022/03/29 14:43:51;;;;;;;27.45;7.28;;;18.20;38.90;;;;;;4972485;28;20053;-79
2022/03/29 14:46:18;;;;;;;20.63;6.07;;;18.00;38.90;;;;;;4972568;28;20061;-80
2022/03/29 14:48:45;;;;;;;22.33;6.28;;;18.00;39.80;;;;;;4972616;28;20046;-79
2022/03/29 14:51:13;;;;;;;19.67;5.78;;;18.00;39.70;;;;;;4972161;28;20051;-78
2022/03/29 14:53:44;;;;;;;24.85;6.20;;;18.20;39.70;;;;;;4972081;28;20141;-78
2022/03/29 14:56:11;;;;;;;21.08;6.95;;;18.20;39.70;;;;;;4971654;28;20050;-80
2022/03/29 14:58:38;;;;;;;21.02;5.90;;;18.10;39.70;;;;;;4973511;28;20082;-82
2022/03/29 15:01:05;;;;;;;24.20;6.47;;;17.90;40.30;;;;;;4972819;28;20047;-82
2022/03/29 15:03:34;;;;;;;22.17;6.38;;;17.90;41.00;;;;;;4971096;28;20097;-83
2022/03/29 15:06:01;;;;;;;21.02;6.30;;;17.70;41.10;;;;;;4979775;28;20447;-83
2022/03/29 15:08:28;;;;;;;21.38;6.05;;;17.60;41.40;;;;;;4986705;28;20138;-84
2022/03/29 15:10:57;;;;;;;25.35;6.22;;;17.50;41.10;;;;;;4973240;28;20125;-86
2022/03/29 15:13:25;;;;;;;20.73;6.68;;;17.40;41.50;;;;;;4969930;28;20085;-84
2022/03/29 15:15:52;;;;;;;24.35;7.78;;;17.20;42.50;;;;;;4954768;28;20054;-83
2022/03/29 15:18:19;;;;;;;24.95;6.50;;;17.20;42.60;;;;;;4974841;28;20138;-82
2022/03/29 15:20:46;;;;;;;27.27;6.22;;;17.10;42.90;;;;;;4955825;28;20046;-81
2022/03/29 15:23:14;;;;;;;26.58;6.53;;;17.10;42.70;;;;;;4971552;28;20130;-78
2022/03/29 15:25:41;;;;;;;21.98;6.10;;;17.10;42.90;;;;;;4972803;28;20047;-82
2022/03/29 15:28:11;;;;;;;18.92;6.10;;;17.20;42.90;;;;;;4972055;28;20043;-81
2022/03/29 15:30:39;;;;;;;27.23;6.55;;;17.20;42.90;;;;;;4968705;28;20046;-83
2022/03/29 15:33:06;;;;;;;18.50;6.28;;;17.20;42.50;;;;;;4973511;28;20055;-83
2022/03/29 15:35:33;;;;;;;23.42;6.60;;;17.20;42.00;;;;;;4972682;28;20047;-82
2022/03/29 15:38:00;;;;;;;23.95;6.50;;;17.30;42.30;;;;;;4971780;28;20154;-83
2022/03/29 15:40:28;;;;;;;21.27;6.15;;;17.40;42.30;;;;;;4972814;28;20059;-83
2022/03/29 15:42:55;;;;;;;21.85;6.45;;;17.30;42.90;;;;;;4956857;28;20131;-84
2022/03/29 15:45:24;;;;;;;21.15;6.03;;;17.30;42.50;;;;;;4974808;28;20141;-84
2022/03/29 15:47:52;;;;;;;19.15;6.07;;;17.20;42.90;;;;;;4976796;28;20476;-83
2022/03/29 15:50:20;;;;;;;23.17;6.93;;;17.20;43.40;;;;;;4976454;28;20055;-84
2022/03/29 15:52:47;;;;;;;24.52;7.13;;;17.10;42.70;;;;;;4976078;28;20058;-84
2022/03/29 15:55:15;;;;;;;23.95;6.18;;;17.10;43.60;;;;;;4976337;28;20547;-85
2022/03/29 15:57:42;;;;;;;25.40;6.72;;;17.00;43.00;;;;;;4977918;28;20101;-84
2022/03/29 16:00:12;;;;;;;19.20;5.80;;;17.00;42.90;;;;;;4976908;28;20077;-83
2022/03/29 16:02:41;;;;;;;26.50;6.82;;;16.90;43.60;;;;;;4976166;28;20051;-84
2022/03/29 16:05:10;;;;;;;19.17;6.50;;;16.90;43.80;;;;;;4977934;28;20055;-84
2022/03/29 16:07:37;;;;;;;21.15;6.70;;;16.90;43.60;;;;;;4976398;28;20053;-84
2022/03/29 16:10:05;;;;;;;23.58;6.78;;;16.90;43.50;;;;;;4971597;28;20463;-83
2022/03/29 16:12:35;;;;;;;24.17;7.07;;;16.90;44.30;;;;;;4974752;28;20055;-85
2022/03/29 16:15:03;;;;;;;21.30;6.15;;;16.90;44.30;;;;;;4971810;28;20054;-85
2022/03/29 16:17:30;;;;;;;19.88;5.78;;;16.90;44.20;;;;;;4956944;28;20047;-83
2022/03/29 16:19:59;;;;;;;18.45;6.22;;;16.90;44.40;;;;;;4957770;28;20480;-82
2022/03/29 16:22:26;;;;;;;22.58;6.00;;;16.90;44.50;;;;;;4973858;28;20073;-81
2022/03/29 16:24:54;;;;;;;22.10;6.00;;;16.80;44.90;;;;;;4970214;28;20396;-86
2022/03/29 16:27:21;;;;;;;21.38;6.10;;;16.70;45.50;;;;;;4972432;28;20059;-85
2022/03/29 16:29:48;;;;;;;17.38;6.15;;;16.60;46.30;;;;;;4964659;28;20061;-86
2022/03/29 16:32:15;;;;;;;18.13;6.22;;;16.60;46.30;;;;;;4961322;28;20051;-84
2022/03/29 16:34:42;;;;;;;22.75;5.95;;;16.60;46.00;;;;;;4965187;28;20408;-84
2022/03/29 16:37:11;;;;;;;22.98;6.00;;;16.60;46.10;;;;;;4945628;28;20039;-84
2022/03/29 16:39:39;;;;;;;22.40;5.70;;;16.60;47.10;;;;;;4948991;28;20056;-84
2022/03/29 16:42:07;;;;;;;26.08;6.22;;;16.60;45.90;;;;;;4971894;28;20058;-83
2022/03/29 16:44:34;;;;;;;23.10;7.50;;;16.60;45.50;;;;;;4964537;28;20051;-84
2022/03/29 16:47:02;;;;;;;22.42;5.90;;;16.60;45.50;;;;;;4964506;28;20082;-82
2022/03/29 16:49:29;;;;;;;31.45;6.85;;;16.50;45.60;;;;;;4941176;28;20043;-84